Map

Track Data

SID SEASON NUMBER BASIN SUBBASIN NAME ISO_TIME NATURE LAT LON WMO_WIND WMO_PRES WMO_AGENCY TRACK_TYPE DIST2LAND LANDFALL IFLAG USA_AGENCY USA_ATCF_ID USA_LAT USA_LON USA_RECORD USA_STATUS USA_WIND USA_PRES USA_SSHS USA_R34_NE USA_R34_SE USA_R34_SW USA_R34_NW USA_R50_NE USA_R50_SE USA_R50_SW USA_R50_NW USA_R64_NE USA_R64_SE USA_R64_SW USA_R64_NW USA_POCI USA_ROCI USA_RMW USA_EYE TOKYO_LAT TOKYO_LON TOKYO_GRADE TOKYO_WIND TOKYO_PRES TOKYO_R50_DIR TOKYO_R50_LONG TOKYO_R50_SHORT TOKYO_R30_DIR TOKYO_R30_LONG TOKYO_R30_SHORT TOKYO_LAND CMA_LAT CMA_LON CMA_CAT CMA_WIND CMA_PRES HKO_LAT HKO_LON HKO_CAT HKO_WIND HKO_PRES NEWDELHI_LAT NEWDELHI_LON NEWDELHI_GRADE NEWDELHI_WIND NEWDELHI_PRES NEWDELHI_CI NEWDELHI_DP NEWDELHI_POCI REUNION_LAT REUNION_LON REUNION_TYPE REUNION_WIND REUNION_PRES REUNION_TNUM REUNION_CI REUNION_RMW REUNION_R34_NE REUNION_R34_SE REUNION_R34_SW REUNION_R34_NW REUNION_R50_NE REUNION_R50_SE REUNION_R50_SW REUNION_R50_NW REUNION_R64_NE REUNION_R64_SE REUNION_R64_SW REUNION_R64_NW BOM_LAT BOM_LON BOM_TYPE BOM_WIND BOM_PRES BOM_TNUM BOM_CI BOM_RMW BOM_R34_NE BOM_R34_SE BOM_R34_SW BOM_R34_NW BOM_R50_NE BOM_R50_SE BOM_R50_SW BOM_R50_NW BOM_R64_NE BOM_R64_SE BOM_R64_SW BOM_R64_NW BOM_ROCI BOM_POCI BOM_EYE BOM_POS_METHOD BOM_PRES_METHOD NADI_LAT NADI_LON NADI_CAT NADI_WIND NADI_PRES WELLINGTON_LAT WELLINGTON_LON WELLINGTON_WIND WELLINGTON_PRES DS824_LAT DS824_LON DS824_STAGE DS824_WIND DS824_PRES TD9636_LAT TD9636_LON TD9636_STAGE TD9636_WIND TD9636_PRES TD9635_LAT TD9635_LON TD9635_WIND TD9635_PRES TD9635_ROCI NEUMANN_LAT NEUMANN_LON NEUMANN_CLASS NEUMANN_WIND NEUMANN_PRES MLC_LAT MLC_LON MLC_CLASS MLC_WIND MLC_PRES USA_GUST BOM_GUST BOM_GUST_PER REUNION_GUST REUNION_GUST_PER USA_SEAHGT USA_SEARAD_NE USA_SEARAD_SE USA_SEARAD_SW USA_SEARAD_NW STORM_SPEED STORM_DIR
1936282N16127 1936 57 WP MM NOT_NAMED 1936-10-08 10:00:00 NR 16.2000 126.700 main 356 348 __________O___ -1 16.2000 126.700 7 2 292
1936282N16127 1936 57 WP MM NOT_NAMED 1936-10-08 12:00:00 NR 16.2301 126.629 main 348 348 __________P___ -1 16.2301 126.629 7 2 293
1936282N16127 1936 57 WP MM NOT_NAMED 1936-10-08 15:00:00 NR 16.2766 126.512 main 349 342 __________P___ -1 16.2766 126.512 7 3 291
1936282N16127 1936 57 WP MM NOT_NAMED 1936-10-08 18:00:00 NR 16.3261 126.367 main 342 335 __________P___ -1 16.3261 126.367 7 3 288
1936282N16127 1936 57 WP MM NOT_NAMED 1936-10-08 21:00:00 NR 16.3805 126.176 main 337 330 __________P___ -1 16.3805 126.176 7 4 286
1936282N16127 1936 57 WP MM NOT_NAMED 1936-10-08 22:00:00 NR 16.4000 126.100 main 330 318 __________O___ -1 16.4000 126.100 7 5 284
1936282N16127 1936 57 WP MM NOT_NAMED 1936-10-09 00:00:00 NR 16.4410 125.925 main 318 312 __________P___ -1 16.4410 125.925 7 6 282
1936282N16127 1936 57 WP MM NOT_NAMED 1936-10-09 03:00:00 NR 16.5027 125.606 main 312 289 __________P___ -1 16.5027 125.606 7 7 280
1936282N16127 1936 57 WP MM NOT_NAMED 1936-10-09 06:00:00 NR 16.5564 125.220 main 289 247 __________P___ -1 16.5564 125.220 7 8 276
1936282N16127 1936 57 WP MM NOT_NAMED 1936-10-09 09:00:00 NR 16.5931 124.766 main 247 226 __________P___ -1 16.5931 124.766 7 9 274
1936282N16127 1936 57 WP MM NOT_NAMED 1936-10-09 10:00:00 NR 16.6000 124.600 main 226 184 __________O___ -1 16.6000 124.600 3 11 272
1936282N16127 1936 57 WP MM NOT_NAMED 1936-10-09 12:00:00 NR 16.6092 124.212 main 184 121 __________P___ -1 16.6092 124.212 3 12 270
1936282N16127 1936 57 WP MM NOT_NAMED 1936-10-09 15:00:00 NR 16.6039 123.572 main 121 54 __________P___ -1 16.6039 123.572 3 12 268
1936282N16127 1936 57 WP MM NOT_NAMED 1936-10-09 18:00:00 NR 16.5749 122.930 main 54 15 __________P___ -1 16.5749 122.930 3 12 266
1936282N16127 1936 57 WP MM NOT_NAMED 1936-10-09 21:00:00 NR 16.5225 122.361 main 15 0 __________P___ -1 16.5225 122.361 3 11 264
1936282N16127 1936 57 WP MM NOT_NAMED 1936-10-09 22:00:00 NR 16.5000 122.200 main 0 0 __________O___ -1 16.5000 122.200 4 8 259
1936282N16127 1936 57 WP MM NOT_NAMED 1936-10-10 00:00:00 NR 16.4470 121.967 main 0 0 __________P___ -1 16.4470 121.967 4 6 252
1936282N16127 1936 57 WP MM NOT_NAMED 1936-10-10 03:00:00 NR 16.3493 121.712 main 0 0 __________P___ -1 16.3493 121.712 4 5 244
1936282N16127 1936 57 WP MM NOT_NAMED 1936-10-10 06:00:00 NR 16.2407 121.527 main 0 0 __________P___ -1 16.2407 121.527 4 4 237
1936282N16127 1936 57 WP MM NOT_NAMED 1936-10-10 09:00:00 NR 16.1334 121.360 main 0 0 __________P___ -1 16.1334 121.360 4 4 237
1936282N16127 1936 57 WP MM NOT_NAMED 1936-10-10 10:00:00 NR 16.1000 121.300 main 0 0 __________O___ -1 16.1000 121.300 4 5 247
1936282N16127 1936 57 WP MM NOT_NAMED 1936-10-10 12:00:00 NR 16.0365 121.129 main 0 0 __________P___ -1 16.0365 121.129 4 5 250
1936282N16127 1936 57 WP MM NOT_NAMED 1936-10-10 15:00:00 NR 15.9473 120.865 main 0 0 __________P___ -1 15.9473 120.865 4 5 252
1936282N16127 1936 57 WP MM NOT_NAMED 1936-10-10 18:00:00 NR 15.8710 120.607 main 0 0 __________P___ -1 15.8710 120.607 4 5 254
1936282N16127 1936 57 WP MM NOT_NAMED 1936-10-10 21:00:00 NR 15.8137 120.371 main 0 0 __________P___ -1 15.8137 120.371 4 5 256
1936282N16127 1936 57 WP MM NOT_NAMED 1936-10-10 22:00:00 NR 15.8000 120.300 main 0 0 __________O___ -1 15.8000 120.300 4 4 258
1936282N16127 1936 57 WP MM NOT_NAMED 1936-10-11 00:00:00 NR 15.7749 120.172 main 0 0 __________P___ -1 15.7749 120.172 4 3 261
1936282N16127 1936 57 WP MM NOT_NAMED 1936-10-11 03:00:00 NR 15.7561 120.005 main 0 0 __________P___ -1 15.7561 120.005 4 3 267
1936282N16127 1936 57 WP MM NOT_NAMED 1936-10-11 06:00:00 NR 15.7599 119.863 main 0 0 __________P___ -1 15.7599 119.863 4 3 277
1936282N16127 1936 57 WP MM NOT_NAMED 1936-10-11 09:00:00 NR 15.7862 119.738 main 15 15 __________P___ -1 15.7862 119.738 4 2 284
1936282N16127 1936 57 WP MM NOT_NAMED 1936-10-11 10:00:00 NR 15.8000 119.700 main 15 15 __________O___ -1 15.8000 119.700 4 3 288
1936282N16127 1936 57 WP MM NOT_NAMED 1936-10-11 12:00:00 NR 15.8276 119.604 main 24 24 __________P___ -1 15.8276 119.604 4 3 292
1936282N16127 1936 57 WP MM NOT_NAMED 1936-10-11 15:00:00 NR 15.8879 119.471 main 24 24 __________P___ -1 15.8879 119.471 4 3 302
1936282N16127 1936 57 WP MM NOT_NAMED 1936-10-11 18:00:00 NR 15.9679 119.367 main 32 32 __________P___ -1 15.9679 119.367 4 2 318
1936282N16127 1936 57 WP MM NOT_NAMED 1936-10-11 21:00:00 NR 16.0646 119.307 main 44 44 __________P___ -1 16.0646 119.307 4 2 333
1936282N16127 1936 57 WP MM NOT_NAMED 1936-10-11 22:00:00 NR 16.1000 119.300 main 44 44 __________O___ -1 16.1000 119.300 4 2 349
1936282N16127 1936 57 WP MM NOT_NAMED 1936-10-12 00:00:00 NR 16.1745 119.297 main 48 48 __________P___ -1 16.1745 119.297 4 2 10
1936282N16127 1936 57 WP MM NOT_NAMED 1936-10-12 03:00:00 NR 16.2989 119.336 main 53 42 __________P___ -1 16.2989 119.336 4 3 25
1936282N16127 1936 57 WP MM NOT_NAMED 1936-10-12 06:00:00 NR 16.4303 119.422 main 44 39 __________P___ -1 16.4303 119.422 4 3 38
1936282N16127 1936 57 WP MM NOT_NAMED 1936-10-12 09:00:00 NR 16.5592 119.550 main 46 39 __________P___ -1 16.5592 119.550 4 4 44
1936282N16127 1936 57 WP MM NOT_NAMED 1936-10-12 10:00:00 NR 16.6000 119.600 main 39 35 __________O___ -1 16.6000 119.600 4 4 52
1936282N16127 1936 57 WP MM NOT_NAMED 1936-10-12 12:00:00 NR 16.6777 119.707 main 46 44 __________P___ -1 16.6777 119.707 4 4 57
1936282N16127 1936 57 WP MM NOT_NAMED 1936-10-12 15:00:00 NR 16.7880 119.900 main 48 33 __________P___ -1 16.7880 119.900 4 4 62
1936282N16127 1936 57 WP MM NOT_NAMED 1936-10-12 18:00:00 NR 16.8880 120.114 main 33 15 __________P___ -1 16.8880 120.114 4 5 66
1936282N16127 1936 57 WP MM NOT_NAMED 1936-10-12 21:00:00 NR 16.9746 120.331 main 21 10 __________P___ -1 16.9746 120.331 4 4 68
1936282N16127 1936 57 WP MM NOT_NAMED 1936-10-12 22:00:00 NR 17.0000 120.400 main 10 0 __________O___ -1 17.0000 120.400 4 4 70
1936282N16127 1936 57 WP MM NOT_NAMED 1936-10-13 00:00:00 NR 17.0394 120.520 main 0 0 __________P___ -1 17.0394 120.520 4 4 73
1936282N16127 1936 57 WP MM NOT_NAMED 1936-10-13 03:00:00 NR 17.0859 120.693 main 0 0 __________P___ -1 17.0859 120.693 4 3 75
1936282N16127 1936 57 WP MM NOT_NAMED 1936-10-13 06:00:00 NR 17.1283 120.864 main 0 0 __________P___ -1 17.1283 120.864 4 3 74
1936282N16127 1936 57 WP MM NOT_NAMED 1936-10-13 09:00:00 NR 17.1790 121.040 main 0 0 __________P___ -1 17.1790 121.040 4 4 72
1936282N16127 1936 57 WP MM NOT_NAMED 1936-10-13 10:00:00 NR 17.2000 121.100 main 0 0 __________O___ -1 17.2000 121.100 4 4 67
1936282N16127 1936 57 WP MM NOT_NAMED 1936-10-13 12:00:00 NR 17.2472 121.209 main 0 0 __________P___ -1 17.2472 121.209 4 4 64
1936282N16127 1936 57 WP MM NOT_NAMED 1936-10-13 15:00:00 NR 17.3305 121.379 main 0 0 __________P___ -1 17.3305 121.379 4 4 62
1936282N16127 1936 57 WP MM NOT_NAMED 1936-10-13 18:00:00 NR 17.4317 121.573 main 0 0 __________P___ -1 17.4317 121.573 4 5 61
1936282N16127 1936 57 WP MM NOT_NAMED 1936-10-13 21:00:00 NR 17.5540 121.809 main 0 0 __________P___ -1 17.5540 121.809 4 5 62
1936282N16127 1936 57 WP MM NOT_NAMED 1936-10-13 22:00:00 NR 17.6000 121.900 main 0 0 __________O___ -1 17.6000 121.900 4 7 64
1936282N16127 1936 57 WP MM NOT_NAMED 1936-10-14 00:00:00 NR 17.6971 122.118 main 0 0 __________P___ -1 17.6971 122.118 4 7 65
1936282N16127 1936 57 WP MM NOT_NAMED 1936-10-14 03:00:00 NR 17.8616 122.489 main 38 38 __________P___ -1 17.8616 122.489 4 8 65
1936282N16127 1936 57 WP MM NOT_NAMED 1936-10-14 06:00:00 NR 18.0429 122.886 main 71 67 __________P___ -1 18.0429 122.886 4 8 64
1936282N16127 1936 57 WP MM NOT_NAMED 1936-10-14 09:00:00 NR 18.2347 123.276 main 106 105 __________P___ -1 18.2347 123.276 4 8 62
1936282N16127 1936 57 WP MM NOT_NAMED 1936-10-14 10:00:00 NR 18.3000 123.400 main 116 116 __________O___ -1 18.3000 123.400 4 8 59
1936282N16127 1936 57 WP MM NOT_NAMED 1936-10-14 12:00:00 NR 18.4327 123.620 main 137 137 __________P___ -1 18.4327 123.620 4 7 56
1936282N16127 1936 57 WP MM NOT_NAMED 1936-10-14 15:00:00 NR 18.6382 123.931 main 170 170 __________P___ -1 18.6382 123.931 4 7 54
1936282N16127 1936 57 WP MM NOT_NAMED 1936-10-14 18:00:00 NR 18.8434 124.224 main 205 207 __________P___ -1 18.8434 124.224 4 7 54
1936282N16127 1936 57 WP MM NOT_NAMED 1936-10-14 21:00:00 NR 19.0387 124.507 main 241 241 __________P___ -1 19.0387 124.507 4 7 54
1936282N16127 1936 57 WP MM NOT_NAMED 1936-10-14 22:00:00 NR 19.1000 124.600 main 254 254 __________O___ -1 19.1000 124.600 4 6 57
1936282N16127 1936 57 WP MM NOT_NAMED 1936-10-15 00:00:00 NR 19.2086 124.781 main 277 277 __________P___ -1 19.2086 124.781 4 6 59
1936282N16127 1936 57 WP MM NOT_NAMED 1936-10-15 03:00:00 NR 19.3589 125.047 main 305 315 __________P___ -1 19.3589 125.047 4 6 60
1936282N16127 1936 57 WP MM NOT_NAMED 1936-10-15 06:00:00 NR 19.5025 125.316 main 338 338 __________P___ -1 19.5025 125.316 4 6 61
1936282N16127 1936 57 WP MM NOT_NAMED 1936-10-15 09:00:00 NR 19.6490 125.600 main 372 376 __________P___ -1 19.6490 125.600 4 6 61
1936282N16127 1936 57 WP MM NOT_NAMED 1936-10-15 10:00:00 NR 19.7000 125.700 main 385 385 __________O___ -1 19.7000 125.700 4 7 62
1936282N16127 1936 57 WP MM NOT_NAMED 1936-10-15 12:00:00 NR 19.8068 125.911 main 409 409 __________P___ -1 19.8068 125.911 4 7 62
1936282N16127 1936 57 WP MM NOT_NAMED 1936-10-15 15:00:00 NR 19.9770 126.249 main 446 456 __________P___ -1 19.9770 126.249 4 7 62
1936282N16127 1936 57 WP MM NOT_NAMED 1936-10-15 18:00:00 NR 20.1556 126.607 main 494 494 __________P___ -1 20.1556 126.607 4 8 62
1936282N16127 1936 57 WP MM NOT_NAMED 1936-10-15 21:00:00 NR 20.3387 126.976 main 536 536 __________P___ -1 20.3387 126.976 4 8 62
1936282N16127 1936 57 WP MM NOT_NAMED 1936-10-15 22:00:00 NR 20.4000 127.100 main 550 __________O___ -1 20.4000 127.100 4 8 62

Digital Typhoon Data and Search

About IBTrACS Database

This database is a web-friendly format of International Best Track Archive for Climate Stewardship (IBTrACS), a global best track data archive curated by NOAA dating back to 1842.

Updated: 2021-11-26